sensor_id;sensor_type;location;lat;lon;timestamp;P1;durP1;ratioP1;P2;durP2;ratioP2
67041;SDS011;53949;47.790;18.750;2022-08-19T00:02:00;12.88;;;6.95;;
67041;SDS011;53949;47.790;18.750;2022-08-19T00:05:14;7.67;;;6.93;;
67041;SDS011;53949;47.790;18.750;2022-08-19T00:08:18;7.65;;;6.37;;
67041;SDS011;53949;47.790;18.750;2022-08-19T00:11:30;9.98;;;6.95;;
67041;SDS011;53949;47.790;18.750;2022-08-19T00:14:36;13.05;;;6.65;;
67041;SDS011;53949;47.790;18.750;2022-08-19T00:17:56;10.32;;;6.95;;
67041;SDS011;53949;47.790;18.750;2022-08-19T00:21:00;9.20;;;7.20;;
67041;SDS011;53949;47.790;18.750;2022-08-19T00:24:03;7.45;;;6.75;;
67041;SDS011;53949;47.790;18.750;2022-08-19T00:27:07;7.20;;;6.47;;
67041;SDS011;53949;47.790;18.750;2022-08-19T00:30:27;7.72;;;6.93;;
67041;SDS011;53949;47.790;18.750;2022-08-19T00:33:32;9.13;;;7.40;;
67041;SDS011;53949;47.790;18.750;2022-08-19T00:36:42;9.05;;;7.78;;
67041;SDS011;53949;47.790;18.750;2022-08-19T00:43:29;9.02;;;7.00;;
67041;SDS011;53949;47.790;18.750;2022-08-19T00:47:40;12.23;;;6.97;;
67041;SDS011;53949;47.790;18.750;2022-08-19T00:54:25;10.75;;;7.20;;
67041;SDS011;53949;47.790;18.750;2022-08-19T00:57:50;9.60;;;6.53;;
67041;SDS011;53949;47.790;18.750;2022-08-19T01:00:58;8.85;;;7.07;;
67041;SDS011;53949;47.790;18.750;2022-08-19T01:04:03;9.85;;;7.45;;
67041;SDS011;53949;47.790;18.750;2022-08-19T01:07:06;8.43;;;7.05;;
67041;SDS011;53949;47.790;18.750;2022-08-19T01:10:17;7.68;;;6.75;;
67041;SDS011;53949;47.790;18.750;2022-08-19T01:13:25;7.35;;;6.53;;
67041;SDS011;53949;47.790;18.750;2022-08-19T01:16:51;9.15;;;7.12;;
67041;SDS011;53949;47.790;18.750;2022-08-19T01:19:56;7.70;;;6.95;;
67041;SDS011;53949;47.790;18.750;2022-08-19T01:23:01;8.32;;;7.10;;
67041;SDS011;53949;47.790;18.750;2022-08-19T01:26:05;7.55;;;6.75;;
67041;SDS011;53949;47.790;18.750;2022-08-19T01:29:09;8.65;;;7.15;;
67041;SDS011;53949;47.790;18.750;2022-08-19T01:32:16;10.30;;;8.17;;
67041;SDS011;53949;47.790;18.750;2022-08-19T01:35:35;8.82;;;6.87;;
67041;SDS011;53949;47.790;18.750;2022-08-19T01:38:39;10.17;;;7.53;;
67041;SDS011;53949;47.790;18.750;2022-08-19T01:41:46;8.05;;;7.22;;
67041;SDS011;53949;47.790;18.750;2022-08-19T01:44:50;9.77;;;7.45;;
67041;SDS011;53949;47.790;18.750;2022-08-19T01:47:53;8.32;;;6.95;;
67041;SDS011;53949;47.790;18.750;2022-08-19T01:51:04;8.38;;;7.15;;
67041;SDS011;53949;47.790;18.750;2022-08-19T01:54:08;10.85;;;7.60;;
67041;SDS011;53949;47.790;18.750;2022-08-19T01:57:13;8.77;;;7.20;;
67041;SDS011;53949;47.790;18.750;2022-08-19T02:00:18;8.60;;;6.70;;
67041;SDS011;53949;47.790;18.750;2022-08-19T02:03:23;11.75;;;7.68;;
67041;SDS011;53949;47.790;18.750;2022-08-19T02:06:27;11.82;;;7.43;;
67041;SDS011;53949;47.790;18.750;2022-08-19T02:13:11;7.72;;;7.03;;
67041;SDS011;53949;47.790;18.750;2022-08-19T02:16:17;8.18;;;6.45;;
67041;SDS011;53949;47.790;18.750;2022-08-19T02:19:21;8.05;;;6.60;;
67041;SDS011;53949;47.790;18.750;2022-08-19T02:26:20;8.55;;;6.78;;
67041;SDS011;53949;47.790;18.750;2022-08-19T02:29:26;9.13;;;6.82;;
67041;SDS011;53949;47.790;18.750;2022-08-19T02:32:40;12.10;;;8.02;;
67041;SDS011;53949;47.790;18.750;2022-08-19T02:35:55;12.52;;;7.43;;
67041;SDS011;53949;47.790;18.750;2022-08-19T02:38:58;10.23;;;7.60;;
67041;SDS011;53949;47.790;18.750;2022-08-19T02:42:01;11.43;;;7.87;;
67041;SDS011;53949;47.790;18.750;2022-08-19T02:45:04;11.18;;;7.68;;
67041;SDS011;53949;47.790;18.750;2022-08-19T02:48:18;11.55;;;7.53;;
67041;SDS011;53949;47.790;18.750;2022-08-19T02:51:28;10.43;;;7.15;;
67041;SDS011;53949;47.790;18.750;2022-08-19T02:54:36;10.02;;;7.35;;
67041;SDS011;53949;47.790;18.750;2022-08-19T02:57:41;8.18;;;7.10;;
67041;SDS011;53949;47.790;18.750;2022-08-19T03:00:55;10.60;;;7.40;;
67041;SDS011;53949;47.790;18.750;2022-08-19T03:04:03;9.13;;;7.40;;
67041;SDS011;53949;47.790;18.750;2022-08-19T03:07:07;9.60;;;7.35;;
67041;SDS011;53949;47.790;18.750;2022-08-19T03:10:16;9.32;;;7.68;;
67041;SDS011;53949;47.790;18.750;2022-08-19T03:13:19;8.65;;;7.60;;
67041;SDS011;53949;47.790;18.750;2022-08-19T03:16:23;9.20;;;6.90;;
67041;SDS011;53949;47.790;18.750;2022-08-19T03:19:28;8.80;;;7.50;;
67041;SDS011;53949;47.790;18.750;2022-08-19T03:22:31;9.52;;;7.75;;
67041;SDS011;53949;47.790;18.750;2022-08-19T03:25:42;12.10;;;8.02;;
67041;SDS011;53949;47.790;18.750;2022-08-19T03:29:04;11.45;;;7.60;;
67041;SDS011;53949;47.790;18.750;2022-08-19T03:32:13;10.57;;;7.28;;
67041;SDS011;53949;47.790;18.750;2022-08-19T03:35:33;8.57;;;7.00;;
67041;SDS011;53949;47.790;18.750;2022-08-19T03:38:43;8.60;;;7.75;;
67041;SDS011;53949;47.790;18.750;2022-08-19T03:41:49;9.60;;;6.87;;
67041;SDS011;53949;47.790;18.750;2022-08-19T03:45:13;8.07;;;7.28;;
67041;SDS011;53949;47.790;18.750;2022-08-19T03:48:16;8.57;;;7.40;;
67041;SDS011;53949;47.790;18.750;2022-08-19T03:51:22;9.48;;;7.72;;
67041;SDS011;53949;47.790;18.750;2022-08-19T03:54:32;8.75;;;6.87;;
67041;SDS011;53949;47.790;18.750;2022-08-19T03:57:36;8.17;;;7.37;;
67041;SDS011;53949;47.790;18.750;2022-08-19T04:00:41;10.98;;;7.22;;
67041;SDS011;53949;47.790;18.750;2022-08-19T04:03:45;10.20;;;6.90;;
67041;SDS011;53949;47.790;18.750;2022-08-19T04:06:49;7.78;;;6.60;;
67041;SDS011;53949;47.790;18.750;2022-08-19T04:09:53;9.43;;;7.30;;
67041;SDS011;53949;47.790;18.750;2022-08-19T04:12:57;8.73;;;7.45;;
67041;SDS011;53949;47.790;18.750;2022-08-19T04:16:05;10.25;;;7.10;;
67041;SDS011;53949;47.790;18.750;2022-08-19T04:19:20;8.63;;;7.12;;
67041;SDS011;53949;47.790;18.750;2022-08-19T04:22:23;11.27;;;7.07;;
67041;SDS011;53949;47.790;18.750;2022-08-19T04:25:53;10.02;;;6.95;;
67041;SDS011;53949;47.790;18.750;2022-08-19T04:29:01;10.85;;;6.57;;
67041;SDS011;53949;47.790;18.750;2022-08-19T04:32:10;11.93;;;6.68;;
67041;SDS011;53949;47.790;18.750;2022-08-19T04:35:19;11.88;;;6.97;;
67041;SDS011;53949;47.790;18.750;2022-08-19T04:38:26;10.88;;;7.10;;
67041;SDS011;53949;47.790;18.750;2022-08-19T04:41:29;9.77;;;7.20;;
67041;SDS011;53949;47.790;18.750;2022-08-19T04:44:58;11.45;;;7.78;;
67041;SDS011;53949;47.790;18.750;2022-08-19T04:48:04;10.65;;;7.22;;
67041;SDS011;53949;47.790;18.750;2022-08-19T04:54:37;8.13;;;6.45;;
67041;SDS011;53949;47.790;18.750;2022-08-19T04:57:41;8.07;;;7.25;;
67041;SDS011;53949;47.790;18.750;2022-08-19T05:00:44;6.80;;;5.93;;
67041;SDS011;53949;47.790;18.750;2022-08-19T05:03:50;8.32;;;6.80;;
67041;SDS011;53949;47.790;18.750;2022-08-19T05:06:54;7.60;;;6.83;;
67041;SDS011;53949;47.790;18.750;2022-08-19T05:10:03;12.32;;;6.72;;
67041;SDS011;53949;47.790;18.750;2022-08-19T05:13:09;11.93;;;7.45;;
67041;SDS011;53949;47.790;18.750;2022-08-19T05:16:13;8.52;;;6.82;;
67041;SDS011;53949;47.790;18.750;2022-08-19T05:19:17;10.15;;;7.10;;
67041;SDS011;53949;47.790;18.750;2022-08-19T05:22:39;13.95;;;7.18;;
67041;SDS011;53949;47.790;18.750;2022-08-19T05:25:45;8.68;;;7.15;;
67041;SDS011;53949;47.790;18.750;2022-08-19T05:28:50;8.05;;;6.87;;
67041;SDS011;53949;47.790;18.750;2022-08-19T05:31:58;8.40;;;6.95;;
67041;SDS011;53949;47.790;18.750;2022-08-19T05:35:04;10.65;;;6.80;;
67041;SDS011;53949;47.790;18.750;2022-08-19T05:38:08;7.60;;;6.68;;
67041;SDS011;53949;47.790;18.750;2022-08-19T05:41:19;7.43;;;6.62;;
67041;SDS011;53949;47.790;18.750;2022-08-19T05:44:24;10.73;;;7.10;;
67041;SDS011;53949;47.790;18.750;2022-08-19T05:47:28;9.25;;;6.72;;
67041;SDS011;53949;47.790;18.750;2022-08-19T05:50:31;7.80;;;6.80;;
67041;SDS011;53949;47.790;18.750;2022-08-19T05:53:34;8.63;;;7.07;;
67041;SDS011;53949;47.790;18.750;2022-08-19T05:56:42;8.82;;;6.78;;
67041;SDS011;53949;47.790;18.750;2022-08-19T05:59:48;9.13;;;6.78;;
67041;SDS011;53949;47.790;18.750;2022-08-19T06:03:00;8.50;;;6.78;;
67041;SDS011;53949;47.790;18.750;2022-08-19T06:06:15;7.10;;;6.15;;
67041;SDS011;53949;47.790;18.750;2022-08-19T06:09:18;9.80;;;6.47;;
67041;SDS011;53949;47.790;18.750;2022-08-19T06:15:31;7.15;;;6.47;;
67041;SDS011;53949;47.790;18.750;2022-08-19T06:18:34;7.55;;;6.47;;
67041;SDS011;53949;47.790;18.750;2022-08-19T06:21:37;9.02;;;6.07;;
67041;SDS011;53949;47.790;18.750;2022-08-19T06:24:42;7.90;;;6.20;;
67041;SDS011;53949;47.790;18.750;2022-08-19T06:27:46;7.55;;;6.12;;
67041;SDS011;53949;47.790;18.750;2022-08-19T06:31:15;9.02;;;6.15;;
67041;SDS011;53949;47.790;18.750;2022-08-19T06:34:22;6.97;;;5.70;;
67041;SDS011;53949;47.790;18.750;2022-08-19T06:37:25;16.73;;;6.50;;
67041;SDS011;53949;47.790;18.750;2022-08-19T06:40:30;7.50;;;6.18;;
67041;SDS011;53949;47.790;18.750;2022-08-19T06:43:36;9.85;;;6.20;;
67041;SDS011;53949;47.790;18.750;2022-08-19T06:47:06;9.32;;;6.20;;
67041;SDS011;53949;47.790;18.750;2022-08-19T06:50:28;7.12;;;6.40;;
67041;SDS011;53949;47.790;18.750;2022-08-19T06:53:31;6.62;;;5.87;;
67041;SDS011;53949;47.790;18.750;2022-08-19T06:56:35;9.57;;;5.93;;
67041;SDS011;53949;47.790;18.750;2022-08-19T07:03:14;7.20;;;5.93;;
67041;SDS011;53949;47.790;18.750;2022-08-19T07:06:18;7.10;;;5.72;;
67041;SDS011;53949;47.790;18.750;2022-08-19T07:09:43;9.93;;;6.12;;
67041;SDS011;53949;47.790;18.750;2022-08-19T07:13:01;7.03;;;5.80;;
67041;SDS011;53949;47.790;18.750;2022-08-19T07:19:44;5.80;;;5.20;;
67041;SDS011;53949;47.790;18.750;2022-08-19T07:22:48;6.03;;;5.53;;
67041;SDS011;53949;47.790;18.750;2022-08-19T07:25:53;7.53;;;5.87;;
67041;SDS011;53949;47.790;18.750;2022-08-19T07:28:57;5.65;;;5.15;;
67041;SDS011;53949;47.790;18.750;2022-08-19T07:36:00;7.30;;;5.32;;
67041;SDS011;53949;47.790;18.750;2022-08-19T07:39:06;8.93;;;6.12;;
67041;SDS011;53949;47.790;18.750;2022-08-19T07:42:11;10.45;;;5.80;;
67041;SDS011;53949;47.790;18.750;2022-08-19T07:49:10;9.88;;;6.03;;
67041;SDS011;53949;47.790;18.750;2022-08-19T07:52:20;6.97;;;5.22;;
67041;SDS011;53949;47.790;18.750;2022-08-19T07:55:24;8.80;;;5.93;;
67041;SDS011;53949;47.790;18.750;2022-08-19T07:58:51;7.37;;;5.50;;
67041;SDS011;53949;47.790;18.750;2022-08-19T08:05:32;6.87;;;5.80;;
67041;SDS011;53949;47.790;18.750;2022-08-19T08:13:31;7.07;;;5.70;;
67041;SDS011;53949;47.790;18.750;2022-08-19T08:16:44;7.05;;;4.85;;
67041;SDS011;53949;47.790;18.750;2022-08-19T08:19:55;5.47;;;4.87;;
67041;SDS011;53949;47.790;18.750;2022-08-19T08:23:21;9.00;;;5.53;;
67041;SDS011;53949;47.790;18.750;2022-08-19T08:26:51;8.27;;;5.85;;
67041;SDS011;53949;47.790;18.750;2022-08-19T08:30:02;5.90;;;5.37;;
67041;SDS011;53949;47.790;18.750;2022-08-19T08:33:07;7.62;;;5.40;;
67041;SDS011;53949;47.790;18.750;2022-08-19T08:36:13;8.20;;;5.45;;
67041;SDS011;53949;47.790;18.750;2022-08-19T08:43:18;7.15;;;5.55;;
67041;SDS011;53949;47.790;18.750;2022-08-19T08:47:00;8.73;;;4.90;;
67041;SDS011;53949;47.790;18.750;2022-08-19T08:54:06;5.05;;;4.37;;
67041;SDS011;53949;47.790;18.750;2022-08-19T08:57:12;5.47;;;4.97;;
67041;SDS011;53949;47.790;18.750;2022-08-19T09:00:27;8.80;;;5.05;;
67041;SDS011;53949;47.790;18.750;2022-08-19T09:03:32;6.30;;;5.07;;
67041;SDS011;53949;47.790;18.750;2022-08-19T09:10:02;4.90;;;4.40;;
67041;SDS011;53949;47.790;18.750;2022-08-19T09:16:39;6.68;;;4.50;;
67041;SDS011;53949;47.790;18.750;2022-08-19T09:20:00;5.78;;;5.28;;
67041;SDS011;53949;47.790;18.750;2022-08-19T09:23:37;5.78;;;5.07;;
67041;SDS011;53949;47.790;18.750;2022-08-19T09:30:56;9.18;;;5.40;;
67041;SDS011;53949;47.790;18.750;2022-08-19T09:33:59;8.05;;;4.72;;
67041;SDS011;53949;47.790;18.750;2022-08-19T09:37:07;5.35;;;4.70;;
67041;SDS011;53949;47.790;18.750;2022-08-19T09:40:12;5.57;;;4.90;;
67041;SDS011;53949;47.790;18.750;2022-08-19T09:43:16;7.95;;;5.07;;
67041;SDS011;53949;47.790;18.750;2022-08-19T09:46:35;6.53;;;4.85;;
67041;SDS011;53949;47.790;18.750;2022-08-19T09:49:38;5.22;;;4.60;;
67041;SDS011;53949;47.790;18.750;2022-08-19T09:52:42;5.93;;;4.55;;
67041;SDS011;53949;47.790;18.750;2022-08-19T09:55:58;5.90;;;4.82;;
67041;SDS011;53949;47.790;18.750;2022-08-19T09:59:05;9.88;;;4.60;;
67041;SDS011;53949;47.790;18.750;2022-08-19T10:02:08;6.75;;;5.35;;
67041;SDS011;53949;47.790;18.750;2022-08-19T10:12:15;6.87;;;4.82;;
67041;SDS011;53949;47.790;18.750;2022-08-19T10:15:21;6.72;;;5.32;;
67041;SDS011;53949;47.790;18.750;2022-08-19T10:18:31;5.80;;;4.80;;
67041;SDS011;53949;47.790;18.750;2022-08-19T10:21:36;5.80;;;4.93;;
67041;SDS011;53949;47.790;18.750;2022-08-19T10:24:45;5.80;;;5.00;;
67041;SDS011;53949;47.790;18.750;2022-08-19T10:27:49;6.65;;;4.35;;
67041;SDS011;53949;47.790;18.750;2022-08-19T10:30:53;6.37;;;5.20;;
67041;SDS011;53949;47.790;18.750;2022-08-19T10:33:56;7.07;;;4.65;;
67041;SDS011;53949;47.790;18.750;2022-08-19T10:37:04;12.85;;;4.40;;
67041;SDS011;53949;47.790;18.750;2022-08-19T10:40:12;5.22;;;4.07;;
67041;SDS011;53949;47.790;18.750;2022-08-19T10:43:16;8.30;;;4.53;;
67041;SDS011;53949;47.790;18.750;2022-08-19T10:46:20;11.05;;;4.72;;
67041;SDS011;53949;47.790;18.750;2022-08-19T10:49:24;5.68;;;4.22;;
67041;SDS011;53949;47.790;18.750;2022-08-19T10:52:29;12.32;;;4.60;;
67041;SDS011;53949;47.790;18.750;2022-08-19T10:55:44;6.37;;;4.20;;
67041;SDS011;53949;47.790;18.750;2022-08-19T10:59:05;7.85;;;4.45;;
67041;SDS011;53949;47.790;18.750;2022-08-19T11:02:10;6.82;;;4.07;;
67041;SDS011;53949;47.790;18.750;2022-08-19T11:05:14;7.65;;;3.85;;
67041;SDS011;53949;47.790;18.750;2022-08-19T11:08:20;7.85;;;4.10;;
67041;SDS011;53949;47.790;18.750;2022-08-19T11:11:25;12.80;;;4.18;;
67041;SDS011;53949;47.790;18.750;2022-08-19T11:14:42;5.30;;;4.00;;
67041;SDS011;53949;47.790;18.750;2022-08-19T11:21:48;8.77;;;3.85;;
67041;SDS011;53949;47.790;18.750;2022-08-19T11:25:18;6.47;;;4.00;;
67041;SDS011;53949;47.790;18.750;2022-08-19T11:28:22;8.30;;;4.15;;
67041;SDS011;53949;47.790;18.750;2022-08-19T11:31:27;9.43;;;4.57;;
67041;SDS011;53949;47.790;18.750;2022-08-19T11:38:22;6.05;;;4.32;;
67041;SDS011;53949;47.790;18.750;2022-08-19T11:41:26;4.63;;;3.53;;
67041;SDS011;53949;47.790;18.750;2022-08-19T11:44:32;6.32;;;3.83;;
67041;SDS011;53949;47.790;18.750;2022-08-19T11:48:02;8.40;;;3.75;;
67041;SDS011;53949;47.790;18.750;2022-08-19T11:55:36;5.97;;;4.35;;
67041;SDS011;53949;47.790;18.750;2022-08-19T12:03:37;9.38;;;4.25;;
67041;SDS011;53949;47.790;18.750;2022-08-19T12:07:25;6.57;;;4.07;;
67041;SDS011;53949;47.790;18.750;2022-08-19T12:11:17;5.18;;;4.15;;
67041;SDS011;53949;47.790;18.750;2022-08-19T12:22:56;5.10;;;3.97;;
67041;SDS011;53949;47.790;18.750;2022-08-19T12:26:01;4.45;;;3.75;;
67041;SDS011;53949;47.790;18.750;2022-08-19T12:29:21;8.88;;;4.53;;
67041;SDS011;53949;47.790;18.750;2022-08-19T12:36:05;9.60;;;4.40;;
67041;SDS011;53949;47.790;18.750;2022-08-19T12:39:09;5.62;;;4.05;;
67041;SDS011;53949;47.790;18.750;2022-08-19T12:42:15;9.60;;;4.55;;
67041;SDS011;53949;47.790;18.750;2022-08-19T12:45:20;7.55;;;4.65;;
67041;SDS011;53949;47.790;18.750;2022-08-19T12:48:23;6.32;;;4.82;;
67041;SDS011;53949;47.790;18.750;2022-08-19T12:51:35;8.57;;;4.70;;
67041;SDS011;53949;47.790;18.750;2022-08-19T12:54:38;7.35;;;5.62;;
67041;SDS011;53949;47.790;18.750;2022-08-19T13:05:14;11.63;;;5.57;;
67041;SDS011;53949;47.790;18.750;2022-08-19T13:16:30;12.90;;;6.87;;
67041;SDS011;53949;47.790;18.750;2022-08-19T13:20:02;11.23;;;7.32;;
67041;SDS011;53949;47.790;18.750;2022-08-19T13:23:19;9.70;;;6.57;;
67041;SDS011;53949;47.790;18.750;2022-08-19T13:30:31;17.35;;;5.45;;
67041;SDS011;53949;47.790;18.750;2022-08-19T13:33:58;15.50;;;4.12;;
67041;SDS011;53949;47.790;18.750;2022-08-19T13:37:07;20.90;;;4.28;;
67041;SDS011;53949;47.790;18.750;2022-08-19T13:40:13;12.88;;;4.20;;
67041;SDS011;53949;47.790;18.750;2022-08-19T13:43:20;9.45;;;3.75;;
67041;SDS011;53949;47.790;18.750;2022-08-19T13:46:33;13.80;;;3.75;;
67041;SDS011;53949;47.790;18.750;2022-08-19T13:49:46;12.63;;;3.67;;
67041;SDS011;53949;47.790;18.750;2022-08-19T13:52:53;13.73;;;3.63;;
67041;SDS011;53949;47.790;18.750;2022-08-19T13:55:57;14.35;;;3.70;;
67041;SDS011;53949;47.790;18.750;2022-08-19T13:59:01;13.55;;;3.30;;
67041;SDS011;53949;47.790;18.750;2022-08-19T14:02:07;13.15;;;3.83;;
67041;SDS011;53949;47.790;18.750;2022-08-19T14:05:12;4.97;;;2.80;;
67041;SDS011;53949;47.790;18.750;2022-08-19T14:08:22;13.20;;;3.72;;
67041;SDS011;53949;47.790;18.750;2022-08-19T14:11:27;9.45;;;3.20;;
67041;SDS011;53949;47.790;18.750;2022-08-19T14:17:51;15.45;;;3.65;;
67041;SDS011;53949;47.790;18.750;2022-08-19T14:21:03;9.82;;;3.47;;
67041;SDS011;53949;47.790;18.750;2022-08-19T14:28:00;11.38;;;4.47;;
67041;SDS011;53949;47.790;18.750;2022-08-19T14:31:04;10.65;;;2.87;;
67041;SDS011;53949;47.790;18.750;2022-08-19T14:34:11;9.98;;;2.80;;
67041;SDS011;53949;47.790;18.750;2022-08-19T14:41:10;8.07;;;2.65;;
67041;SDS011;53949;47.790;18.750;2022-08-19T14:58:04;14.38;;;2.40;;
67041;SDS011;53949;47.790;18.750;2022-08-19T15:01:32;10.73;;;2.40;;
67041;SDS011;53949;47.790;18.750;2022-08-19T15:08:13;8.95;;;2.25;;
67041;SDS011;53949;47.790;18.750;2022-08-19T15:11:23;6.70;;;2.25;;
67041;SDS011;53949;47.790;18.750;2022-08-19T15:14:39;12.60;;;2.40;;
67041;SDS011;53949;47.790;18.750;2022-08-19T15:21:16;6.37;;;1.90;;
67041;SDS011;53949;47.790;18.750;2022-08-19T15:25:03;10.82;;;2.22;;
67041;SDS011;53949;47.790;18.750;2022-08-19T15:48:44;14.93;;;2.45;;
67041;SDS011;53949;47.790;18.750;2022-08-19T16:04:43;16.85;;;3.22;;
67041;SDS011;53949;47.790;18.750;2022-08-19T16:08:11;10.07;;;2.62;;
67041;SDS011;53949;47.790;18.750;2022-08-19T16:11:31;8.70;;;2.58;;
67041;SDS011;53949;47.790;18.750;2022-08-19T16:14:55;9.70;;;3.00;;
67041;SDS011;53949;47.790;18.750;2022-08-19T16:17:59;10.65;;;3.08;;
67041;SDS011;53949;47.790;18.750;2022-08-19T16:21:13;10.23;;;2.22;;
67041;SDS011;53949;47.790;18.750;2022-08-19T16:24:26;8.65;;;2.37;;
67041;SDS011;53949;47.790;18.750;2022-08-19T16:27:30;11.95;;;2.65;;
67041;SDS011;53949;47.790;18.750;2022-08-19T16:30:34;12.93;;;2.70;;
67041;SDS011;53949;47.790;18.750;2022-08-19T16:42:26;10.70;;;3.08;;
67041;SDS011;53949;47.790;18.750;2022-08-19T16:48:57;12.20;;;2.83;;
67041;SDS011;53949;47.790;18.750;2022-08-19T16:52:04;9.38;;;2.47;;
67041;SDS011;53949;47.790;18.750;2022-08-19T16:59:00;9.63;;;2.58;;
67041;SDS011;53949;47.790;18.750;2022-08-19T17:02:13;15.07;;;3.30;;
67041;SDS011;53949;47.790;18.750;2022-08-19T17:05:16;10.93;;;2.50;;
67041;SDS011;53949;47.790;18.750;2022-08-19T17:08:26;11.20;;;3.05;;
67041;SDS011;53949;47.790;18.750;2022-08-19T17:15:53;13.80;;;3.47;;
67041;SDS011;53949;47.790;18.750;2022-08-19T17:19:01;11.95;;;2.90;;
67041;SDS011;53949;47.790;18.750;2022-08-19T17:22:07;10.55;;;2.90;;
67041;SDS011;53949;47.790;18.750;2022-08-19T17:25:12;12.77;;;2.90;;
67041;SDS011;53949;47.790;18.750;2022-08-19T17:28:17;11.25;;;3.37;;
67041;SDS011;53949;47.790;18.750;2022-08-19T17:31:21;11.48;;;3.03;;
67041;SDS011;53949;47.790;18.750;2022-08-19T17:34:25;9.13;;;2.80;;
67041;SDS011;53949;47.790;18.750;2022-08-19T17:37:39;16.90;;;4.70;;
67041;SDS011;53949;47.790;18.750;2022-08-19T17:53:31;10.85;;;3.50;;
67041;SDS011;53949;47.790;18.750;2022-08-19T17:56:35;11.80;;;3.83;;
67041;SDS011;53949;47.790;18.750;2022-08-19T18:02:44;16.62;;;4.43;;
67041;SDS011;53949;47.790;18.750;2022-08-19T18:05:53;16.33;;;3.75;;
67041;SDS011;53949;47.790;18.750;2022-08-19T18:08:55;14.50;;;4.82;;
67041;SDS011;53949;47.790;18.750;2022-08-19T18:11:59;14.87;;;4.03;;
67041;SDS011;53949;47.790;18.750;2022-08-19T18:15:03;14.23;;;3.50;;
67041;SDS011;53949;47.790;18.750;2022-08-19T18:18:07;14.25;;;3.78;;
67041;SDS011;53949;47.790;18.750;2022-08-19T18:21:16;14.32;;;3.85;;
67041;SDS011;53949;47.790;18.750;2022-08-19T18:24:19;14.70;;;3.15;;
67041;SDS011;53949;47.790;18.750;2022-08-19T18:27:22;12.37;;;2.90;;
67041;SDS011;53949;47.790;18.750;2022-08-19T18:30:27;8.80;;;2.72;;
67041;SDS011;53949;47.790;18.750;2022-08-19T18:33:35;15.68;;;3.95;;
67041;SDS011;53949;47.790;18.750;2022-08-19T18:36:46;16.95;;;4.20;;
67041;SDS011;53949;47.790;18.750;2022-08-19T18:39:55;13.40;;;3.80;;
67041;SDS011;53949;47.790;18.750;2022-08-19T18:43:16;16.27;;;3.22;;
67041;SDS011;53949;47.790;18.750;2022-08-19T18:46:24;10.15;;;3.33;;
67041;SDS011;53949;47.790;18.750;2022-08-19T18:49:46;12.55;;;4.65;;
67041;SDS011;53949;47.790;18.750;2022-08-19T18:52:52;16.95;;;4.68;;
67041;SDS011;53949;47.790;18.750;2022-08-19T18:55:55;13.27;;;4.25;;
67041;SDS011;53949;47.790;18.750;2022-08-19T18:58:59;16.05;;;4.57;;
67041;SDS011;53949;47.790;18.750;2022-08-19T19:02:05;17.08;;;4.47;;
67041;SDS011;53949;47.790;18.750;2022-08-19T19:05:12;13.55;;;4.25;;
67041;SDS011;53949;47.790;18.750;2022-08-19T19:08:16;13.38;;;3.72;;
67041;SDS011;53949;47.790;18.750;2022-08-19T19:11:24;15.52;;;4.60;;
67041;SDS011;53949;47.790;18.750;2022-08-19T19:14:35;15.73;;;4.97;;
67041;SDS011;53949;47.790;18.750;2022-08-19T19:17:50;10.55;;;4.32;;
67041;SDS011;53949;47.790;18.750;2022-08-19T19:20:54;12.40;;;5.62;;
67041;SDS011;53949;47.790;18.750;2022-08-19T19:23:59;13.73;;;4.75;;
67041;SDS011;53949;47.790;18.750;2022-08-19T19:27:03;13.50;;;5.60;;
67041;SDS011;53949;47.790;18.750;2022-08-19T19:30:11;9.82;;;5.05;;
67041;SDS011;53949;47.790;18.750;2022-08-19T19:33:15;7.87;;;4.50;;
67041;SDS011;53949;47.790;18.750;2022-08-19T19:36:18;15.40;;;4.40;;
67041;SDS011;53949;47.790;18.750;2022-08-19T19:39:22;11.60;;;3.87;;
67041;SDS011;53949;47.790;18.750;2022-08-19T19:42:45;10.95;;;2.75;;
67041;SDS011;53949;47.790;18.750;2022-08-19T19:45:49;9.82;;;2.62;;
67041;SDS011;53949;47.790;18.750;2022-08-19T19:48:53;10.98;;;3.42;;
67041;SDS011;53949;47.790;18.750;2022-08-19T19:52:01;7.18;;;2.50;;
67041;SDS011;53949;47.790;18.750;2022-08-19T19:55:07;9.45;;;2.50;;
67041;SDS011;53949;47.790;18.750;2022-08-19T19:58:11;15.10;;;2.72;;
67041;SDS011;53949;47.790;18.750;2022-08-19T20:01:13;11.10;;;2.70;;
67041;SDS011;53949;47.790;18.750;2022-08-19T20:04:25;13.62;;;2.85;;
67041;SDS011;53949;47.790;18.750;2022-08-19T20:07:28;7.22;;;2.40;;
67041;SDS011;53949;47.790;18.750;2022-08-19T20:10:51;11.63;;;3.10;;
67041;SDS011;53949;47.790;18.750;2022-08-19T20:13:55;7.62;;;2.60;;
67041;SDS011;53949;47.790;18.750;2022-08-19T20:16:58;6.97;;;2.83;;
67041;SDS011;53949;47.790;18.750;2022-08-19T20:20:01;9.80;;;3.65;;
67041;SDS011;53949;47.790;18.750;2022-08-19T20:23:06;8.82;;;3.05;;
67041;SDS011;53949;47.790;18.750;2022-08-19T20:26:09;12.30;;;3.70;;
67041;SDS011;53949;47.790;18.750;2022-08-19T20:29:23;8.10;;;3.10;;
67041;SDS011;53949;47.790;18.750;2022-08-19T20:32:42;7.95;;;2.90;;
67041;SDS011;53949;47.790;18.750;2022-08-19T20:35:48;9.43;;;4.05;;
67041;SDS011;53949;47.790;18.750;2022-08-19T20:38:50;15.30;;;3.87;;
67041;SDS011;53949;47.790;18.750;2022-08-19T20:41:54;12.00;;;3.12;;
67041;SDS011;53949;47.790;18.750;2022-08-19T20:44:57;15.93;;;4.10;;
67041;SDS011;53949;47.790;18.750;2022-08-19T20:48:02;10.38;;;3.80;;
67041;SDS011;53949;47.790;18.750;2022-08-19T20:51:06;13.67;;;3.87;;
67041;SDS011;53949;47.790;18.750;2022-08-19T20:54:11;12.50;;;3.78;;
67041;SDS011;53949;47.790;18.750;2022-08-19T20:57:15;10.98;;;4.07;;
67041;SDS011;53949;47.790;18.750;2022-08-19T21:00:20;14.05;;;5.30;;
67041;SDS011;53949;47.790;18.750;2022-08-19T21:03:24;15.55;;;4.68;;
67041;SDS011;53949;47.790;18.750;2022-08-19T21:06:30;9.90;;;4.68;;
67041;SDS011;53949;47.790;18.750;2022-08-19T21:09:33;23.20;;;5.70;;
67041;SDS011;53949;47.790;18.750;2022-08-19T21:12:38;16.47;;;5.37;;
67041;SDS011;53949;47.790;18.750;2022-08-19T21:15:41;18.23;;;6.28;;
67041;SDS011;53949;47.790;18.750;2022-08-19T21:18:45;13.35;;;5.90;;
67041;SDS011;53949;47.790;18.750;2022-08-19T21:21:49;16.70;;;6.00;;
67041;SDS011;53949;47.790;18.750;2022-08-19T21:24:53;13.50;;;6.28;;
67041;SDS011;53949;47.790;18.750;2022-08-19T21:27:55;13.88;;;6.25;;
67041;SDS011;53949;47.790;18.750;2022-08-19T21:30:58;15.65;;;6.80;;
67041;SDS011;53949;47.790;18.750;2022-08-19T21:34:02;10.73;;;6.43;;
67041;SDS011;53949;47.790;18.750;2022-08-19T21:37:05;13.80;;;6.03;;
67041;SDS011;53949;47.790;18.750;2022-08-19T21:40:15;12.77;;;6.50;;
67041;SDS011;53949;47.790;18.750;2022-08-19T21:43:19;14.65;;;6.07;;
67041;SDS011;53949;47.790;18.750;2022-08-19T21:46:22;12.50;;;6.22;;
67041;SDS011;53949;47.790;18.750;2022-08-19T21:49:26;13.35;;;6.80;;
67041;SDS011;53949;47.790;18.750;2022-08-19T21:52:29;17.65;;;6.60;;
67041;SDS011;53949;47.790;18.750;2022-08-19T21:55:32;14.82;;;7.03;;
67041;SDS011;53949;47.790;18.750;2022-08-19T21:58:35;13.73;;;6.97;;
67041;SDS011;53949;47.790;18.750;2022-08-19T22:01:39;15.45;;;6.93;;
67041;SDS011;53949;47.790;18.750;2022-08-19T22:04:50;15.65;;;6.00;;
67041;SDS011;53949;47.790;18.750;2022-08-19T22:07:54;12.68;;;5.95;;
67041;SDS011;53949;47.790;18.750;2022-08-19T22:11:03;15.40;;;6.30;;
67041;SDS011;53949;47.790;18.750;2022-08-19T22:14:06;19.98;;;6.75;;